Time,TemperatureF,DewpointF,PressureIn,WindDirection,WindDirectionDegrees,WindSpeedMPH,WindSpeedGustMPH,Humidity,HourlyPrecipIn,Conditions,Clouds,dailyrainin,SolarRadiationWatts/m^2,SoftwareType,DateUTC
2013-11-19 00:07:00,37.9,27.0,29.86,West,279,6.0,-999.0,66,-99.99,,,0.00,0,weatherlink.com 1.10,2013-11-19 05:07:00,
2013-11-19 00:22:00,37.9,27.0,29.86,WSW,238,11.0,-999.0,65,-99.99,,,0.00,0,weatherlink.com 1.10,2013-11-19 05:22:00,
2013-11-19 00:37:00,37.9,27.0,29.86,SW,227,15.0,-999.0,66,-99.99,,,0.00,0,weatherlink.com 1.10,2013-11-19 05:37:00,
2013-11-19 00:52:00,37.8,27.0,29.87,WSW,254,18.0,-999.0,66,-99.99,,,0.00,0,weatherlink.com 1.10,2013-11-19 05:52:00,
2013-11-19 01:07:00,37.8,27.0,29.88,WSW,246,14.0,-999.0,66,-99.99,,,0.00,0,weatherlink.com 1.10,2013-11-19 06:07:00,
2013-11-19 01:22:00,37.8,28.0,29.88,West,268,12.0,-999.0,67,-99.99,,,0.00,0,weatherlink.com 1.10,2013-11-19 06:22:00,
2013-11-19 01:37:00,37.8,28.0,29.89,West,259,22.0,-999.0,67,-99.99,,,0.00,0,weatherlink.com 1.10,2013-11-19 06:37:00,
2013-11-19 01:52:00,37.8,28.0,29.89,SW,223,16.0,-999.0,67,-99.99,,,0.00,0,weatherlink.com 1.10,2013-11-19 06:52:00,
2013-11-19 02:07:00,37.9,28.0,29.90,West,279,7.0,-999.0,67,-99.99,,,0.00,0,weatherlink.com 1.10,2013-11-19 07:07:00,
2013-11-19 02:22:00,37.9,27.0,29.90,SW,218,10.0,-999.0,66,-99.99,,,0.00,0,weatherlink.com 1.10,2013-11-19 07:22:00,
2013-11-19 02:37:00,38.0,27.0,29.91,West,268,11.0,-999.0,66,-99.99,,,0.00,0,weatherlink.com 1.10,2013-11-19 07:37:00,
2013-11-19 02:52:00,38.0,27.0,29.92,West,281,9.0,-999.0,66,-99.99,,,0.00,0,weatherlink.com 1.10,2013-11-19 07:52:00,
2013-11-19 03:07:00,37.9,27.0,29.93,West,269,14.0,-999.0,66,-99.99,,,0.00,0,weatherlink.com 1.10,2013-11-19 08:07:00,
2013-11-19 03:22:00,37.9,28.0,29.94,NNW,334,7.0,-999.0,67,-99.99,,,0.00,0,weatherlink.com 1.10,2013-11-19 08:22:00,
2013-11-19 03:37:00,37.8,28.0,29.95,West,281,10.0,-999.0,68,-99.99,,,0.00,0,weatherlink.com 1.10,2013-11-19 08:37:00,
2013-11-19 03:53:00,37.7,28.0,29.95,WSW,253,8.0,-999.0,68,-99.99,,,0.00,0,weatherlink.com 1.10,2013-11-19 08:53:00,
2013-11-19 04:08:00,37.8,28.0,29.96,West,280,10.0,-999.0,68,-99.99,,,0.00,0,weatherlink.com 1.10,2013-11-19 09:08:00,
2013-11-19 04:23:00,37.8,28.0,29.98,WSW,252,11.0,-999.0,69,-99.99,,,0.00,0,weatherlink.com 1.10,2013-11-19 09:23:00,
2013-11-19 04:38:00,37.8,28.0,29.98,WSW,255,9.0,-999.0,69,-99.99,,,0.00,0,weatherlink.com 1.10,2013-11-19 09:38:00,
2013-11-19 04:53:00,37.8,28.0,29.99,WSW,248,11.0,-999.0,69,-99.99,,,0.00,0,weatherlink.com 1.10,2013-11-19 09:53:00,
2013-11-19 05:08:00,37.7,28.0,30.00,West,269,11.0,-999.0,69,-99.99,,,0.00,0,weatherlink.com 1.10,2013-11-19 10:08:00,
2013-11-19 05:23:00,37.7,28.0,30.00,WSW,253,8.0,-999.0,69,-99.99,,,0.00,0,weatherlink.com 1.10,2013-11-19 10:23:00,
2013-11-19 05:38:00,-999.0,-99.9,30.01,North,-999,-999.0,-999.0,-999,-99.99,,,0.00,,weatherlink.com 1.10,2013-11-19 10:38:00,
2013-11-19 05:54:00,-999.0,-99.9,30.02,North,-999,-999.0,-999.0,-999,-99.99,,,0.00,,weatherlink.com 1.10,2013-11-19 10:54:00,
2013-11-19 06:08:00,-999.0,-99.9,30.03,North,-999,-999.0,-999.0,-999,-99.99,,,0.00,,weatherlink.com 1.10,2013-11-19 11:08:00,
2013-11-19 06:23:00,-999.0,-99.9,30.03,North,-999,-999.0,-999.0,-999,-99.99,,,0.00,,weatherlink.com 1.10,2013-11-19 11:23:00,
2013-11-19 06:38:00,-999.0,-99.9,30.05,North,-999,-999.0,-999.0,-999,-99.99,,,0.00,,weatherlink.com 1.10,2013-11-19 11:38:00,
2013-11-19 06:53:00,-999.0,-99.9,30.05,North,-999,-999.0,-999.0,-999,-99.99,,,0.00,,weatherlink.com 1.10,2013-11-19 11:53:00,
2013-11-19 07:08:00,-999.0,-99.9,30.06,North,-999,-999.0,-999.0,-999,-99.99,,,0.00,,weatherlink.com 1.10,2013-11-19 12:08:00,
2013-11-19 07:23:00,-999.0,-99.9,30.07,North,-999,-999.0,-999.0,-999,-99.99,,,0.00,,weatherlink.com 1.10,2013-11-19 12:23:00,
2013-11-19 07:38:00,-999.0,-99.9,30.08,North,-999,-999.0,-999.0,-999,-99.99,,,0.00,,weatherlink.com 1.10,2013-11-19 12:38:00,
2013-11-19 07:53:00,-999.0,-99.9,30.09,North,-999,-999.0,-999.0,-999,-99.99,,,0.00,,weatherlink.com 1.10,2013-11-19 12:53:00,
2013-11-19 08:09:00,-999.0,-99.9,30.10,North,-999,-999.0,-999.0,-999,-99.99,,,0.00,,weatherlink.com 1.10,2013-11-19 13:09:00,
2013-11-19 08:24:00,-999.0,-99.9,30.11,North,-999,-999.0,-999.0,-999,-99.99,,,0.00,,weatherlink.com 1.10,2013-11-19 13:24:00,
2013-11-19 08:39:00,-999.0,-99.9,30.11,North,-999,-999.0,-999.0,-999,-99.99,,,0.00,,weatherlink.com 1.10,2013-11-19 13:39:00,
2013-11-19 08:54:00,36.9,27.0,30.12,West,260,13.0,-999.0,68,-99.99,,,0.00,40,weatherlink.com 1.10,2013-11-19 13:54:00,
2013-11-19 09:09:00,36.9,27.0,30.13,West,265,20.0,-999.0,68,-99.99,,,0.00,42,weatherlink.com 1.10,2013-11-19 14:09:00,
2013-11-19 09:24:00,36.8,27.0,30.14,NW,319,8.0,-999.0,68,-99.99,,,0.00,76,weatherlink.com 1.10,2013-11-19 14:24:00,
2013-11-19 09:39:00,36.8,27.0,30.14,WNW,289,11.0,-999.0,69,-99.99,,,0.00,84,weatherlink.com 1.10,2013-11-19 14:39:00,
2013-11-19 09:54:00,36.6,27.0,30.15,West,281,10.0,-999.0,69,-99.99,,,0.00,62,weatherlink.com 1.10,2013-11-19 14:54:00,
2013-11-19 10:09:00,36.6,28.0,30.16,WNW,286,19.0,-999.0,70,-99.99,,,0.00,74,weatherlink.com 1.10,2013-11-19 15:09:00,
2013-11-19 10:24:00,36.7,27.0,30.16,WNW,282,10.0,-999.0,69,-99.99,,,0.00,100,weatherlink.com 1.10,2013-11-19 15:24:00,
2013-11-19 10:39:00,36.8,27.0,30.17,WSW,247,8.0,-999.0,69,-99.99,,,0.00,77,weatherlink.com 1.10,2013-11-19 15:39:00,
2013-11-19 10:54:00,36.7,27.0,30.17,WNW,294,6.0,-999.0,68,-99.99,,,0.00,113,weatherlink.com 1.10,2013-11-19 15:54:00,
2013-11-19 11:09:00,36.6,27.0,30.18,West,277,11.0,-999.0,69,-99.99,,,0.00,139,weatherlink.com 1.10,2013-11-19 16:09:00,
2013-11-19 11:24:00,36.6,28.0,30.18,WNW,292,15.0,-999.0,70,-99.99,,,0.00,141,weatherlink.com 1.10,2013-11-19 16:24:00,
2013-11-19 11:39:00,36.5,27.0,30.18,WNW,285,10.0,-999.0,69,-99.99,,,0.00,134,weatherlink.com 1.10,2013-11-19 16:39:00,
2013-11-19 11:54:00,36.4,26.0,30.19,WNW,300,13.0,-999.0,67,-99.99,,,0.00,121,weatherlink.com 1.10,2013-11-19 16:54:00,
2013-11-19 12:09:00,36.4,26.0,30.20,NW,305,14.0,-999.0,66,-99.99,,,0.00,151,weatherlink.com 1.10,2013-11-19 17:09:00,
2013-11-19 12:24:00,36.5,26.0,30.20,West,260,9.0,-999.0,66,-99.99,,,0.00,127,weatherlink.com 1.10,2013-11-19 17:24:00,
2013-11-19 12:39:00,36.4,26.0,30.21,West,279,20.0,-999.0,66,-99.99,,,0.00,197,weatherlink.com 1.10,2013-11-19 17:39:00,
2013-11-19 12:54:00,36.6,25.0,30.21,WNW,292,18.0,-999.0,64,-99.99,,,0.00,221,weatherlink.com 1.10,2013-11-19 17:54:00,
2013-11-19 13:09:00,36.8,25.0,30.22,West,259,5.0,-999.0,63,-99.99,,,0.00,163,weatherlink.com 1.10,2013-11-19 18:09:00,
2013-11-19 13:24:00,36.8,25.0,30.22,West,269,13.0,-999.0,63,-99.99,,,0.00,130,weatherlink.com 1.10,2013-11-19 18:24:00,
2013-11-19 13:39:00,37.0,26.0,30.22,West,265,16.0,-999.0,64,-99.99,,,0.00,144,weatherlink.com 1.10,2013-11-19 18:39:00,
2013-11-19 13:54:00,36.7,26.0,30.23,WNW,294,15.0,-999.0,65,-99.99,,,0.00,139,weatherlink.com 1.10,2013-11-19 18:54:00,
2013-11-19 14:09:00,36.6,26.0,30.24,WNW,302,10.0,-999.0,65,-99.99,,,0.00,77,weatherlink.com 1.10,2013-11-19 19:09:00,
2013-11-19 14:24:00,36.5,26.0,30.24,WNW,302,7.0,-999.0,65,-99.99,,,0.00,127,weatherlink.com 1.10,2013-11-19 19:24:00,
2013-11-19 14:39:00,36.5,26.0,30.24,WSW,249,10.0,-999.0,65,-99.99,,,0.00,98,weatherlink.com 1.10,2013-11-19 19:39:00,
2013-11-19 14:54:00,36.4,25.0,30.24,West,260,9.0,-999.0,64,-99.99,,,0.00,114,weatherlink.com 1.10,2013-11-19 19:54:00,
2013-11-19 15:09:00,36.5,25.0,30.25,West,277,8.0,-999.0,64,-99.99,,,0.00,102,weatherlink.com 1.10,2013-11-19 20:09:00,
2013-11-19 15:25:00,36.3,25.0,30.25,West,281,15.0,-999.0,64,-99.99,,,0.00,56,weatherlink.com 1.10,2013-11-19 20:25:00,
2013-11-19 15:40:00,36.1,25.0,30.26,WSW,254,6.0,-999.0,65,-99.99,,,0.00,158,weatherlink.com 1.10,2013-11-19 20:40:00,
2013-11-19 15:55:00,36.6,25.0,30.27,West,266,10.0,-999.0,63,-99.99,,,0.00,40,weatherlink.com 1.10,2013-11-19 20:55:00,
2013-11-19 16:10:00,36.2,25.0,30.28,WNW,296,7.0,-999.0,63,-99.99,,,0.00,21,weatherlink.com 1.10,2013-11-19 21:10:00,
2013-11-19 16:25:00,35.7,25.0,30.29,WNW,290,9.0,-999.0,64,-99.99,,,0.00,11,weatherlink.com 1.10,2013-11-19 21:25:00,
2013-11-19 16:40:00,35.3,25.0,30.29,West,278,7.0,-999.0,65,-99.99,,,0.00,5,weatherlink.com 1.10,2013-11-19 21:40:00,
2013-11-19 16:55:00,35.0,25.0,30.30,WNW,291,10.0,-999.0,66,-99.99,,,0.00,0,weatherlink.com 1.10,2013-11-19 21:55:00,
2013-11-19 17:10:00,34.7,24.0,30.31,WNW,283,4.0,-999.0,66,-99.99,,,0.00,0,weatherlink.com 1.10,2013-11-19 22:10:00,
2013-11-19 17:25:00,34.5,25.0,30.31,West,277,2.0,-999.0,68,-99.99,,,0.00,0,weatherlink.com 1.10,2013-11-19 22:25:00,
2013-11-19 17:40:00,34.1,25.0,30.32,West,277,6.0,-999.0,69,-99.99,,,0.00,0,weatherlink.com 1.10,2013-11-19 22:40:00,
2013-11-19 17:55:00,34.0,25.0,30.33,West,277,6.0,-999.0,70,-99.99,,,0.00,0,weatherlink.com 1.10,2013-11-19 22:55:00,
2013-11-19 18:10:00,34.0,25.0,30.33,West,280,5.0,-999.0,70,-99.99,,,0.00,0,weatherlink.com 1.10,2013-11-19 23:10:00,
2013-11-19 18:25:00,33.7,25.0,30.34,West,274,4.0,-999.0,71,-99.99,,,0.00,0,weatherlink.com 1.10,2013-11-19 23:25:00,
2013-11-19 18:40:00,33.5,25.0,30.34,West,273,5.0,-999.0,71,-99.99,,,0.00,0,weatherlink.com 1.10,2013-11-19 23:40:00,
2013-11-19 18:55:00,33.5,25.0,30.34,West,263,6.0,-999.0,71,-99.99,,,0.00,0,weatherlink.com 1.10,2013-11-19 23:55:00,
2013-11-19 19:10:00,33.7,25.0,30.35,West,271,4.0,-999.0,71,-99.99,,,0.00,0,weatherlink.com 1.10,2013-11-20 00:10:00,
2013-11-19 19:25:00,33.7,25.0,30.36,West,267,6.0,-999.0,70,-99.99,,,0.00,0,weatherlink.com 1.10,2013-11-20 00:25:00,
2013-11-19 19:40:00,33.7,25.0,30.37,WSW,248,4.0,-999.0,70,-99.99,,,0.00,0,weatherlink.com 1.10,2013-11-20 00:40:00,
2013-11-19 19:55:00,33.7,25.0,30.37,West,265,5.0,-999.0,70,-99.99,,,0.00,0,weatherlink.com 1.10,2013-11-20 00:55:00,
2013-11-19 20:10:00,33.6,25.0,30.38,WSW,256,5.0,-999.0,71,-99.99,,,0.00,0,weatherlink.com 1.10,2013-11-20 01:10:00,
2013-11-19 20:25:00,33.5,25.0,30.39,West,262,3.0,-999.0,71,-99.99,,,0.00,0,weatherlink.com 1.10,2013-11-20 01:25:00,
2013-11-19 20:40:00,33.3,25.0,30.39,West,263,5.0,-999.0,71,-99.99,,,0.00,0,weatherlink.com 1.10,2013-11-20 01:40:00,
2013-11-19 20:55:00,33.2,25.0,30.39,West,269,1.0,-999.0,71,-99.99,,,0.00,0,weatherlink.com 1.10,2013-11-20 01:55:00,
2013-11-19 21:10:00,32.9,24.0,30.39,West,266,2.0,-999.0,71,-99.99,,,0.00,0,weatherlink.com 1.10,2013-11-20 02:10:00,
2013-11-19 21:25:00,32.6,24.0,30.40,West,265,2.0,-999.0,72,-99.99,,,0.00,0,weatherlink.com 1.10,2013-11-20 02:25:00,
2013-11-19 21:40:00,32.5,24.0,30.40,WSW,240,4.0,-999.0,72,-99.99,,,0.00,0,weatherlink.com 1.10,2013-11-20 02:40:00,
2013-11-19 21:55:00,32.5,24.0,30.41,West,269,5.0,-999.0,72,-99.99,,,0.00,0,weatherlink.com 1.10,2013-11-20 02:55:00,
2013-11-19 22:10:00,32.7,24.0,30.42,West,273,2.0,-999.0,71,-99.99,,,0.00,0,weatherlink.com 1.10,2013-11-20 03:10:00,
2013-11-19 22:25:00,32.6,24.0,30.42,West,274,0.0,-999.0,71,-99.99,,,0.00,0,weatherlink.com 1.10,2013-11-20 03:25:00,
2013-11-19 22:40:00,32.3,24.0,30.43,West,274,3.0,-999.0,71,-99.99,,,0.00,0,weatherlink.com 1.10,2013-11-20 03:40:00,
2013-11-19 22:55:00,31.9,23.0,30.43,West,274,2.0,-999.0,71,-99.99,,,0.00,0,weatherlink.com 1.10,2013-11-20 03:55:00,
2013-11-19 23:10:00,31.8,23.0,30.43,West,274,1.0,-999.0,71,-99.99,,,0.00,0,weatherlink.com 1.10,2013-11-20 04:10:00,
2013-11-19 23:25:00,31.5,23.0,30.43,West,274,4.0,-999.0,70,-99.99,,,0.00,0,weatherlink.com 1.10,2013-11-20 04:25:00,
2013-11-19 23:40:00,31.3,23.0,30.44,West,274,2.0,-999.0,70,-99.99,,,0.00,0,weatherlink.com 1.10,2013-11-20 04:40:00,
2013-11-19 23:55:00,31.1,22.0,30.44,West,272,0.0,-999.0,70,-99.99,,,0.00,0,weatherlink.com 1.10,2013-11-20 04:55:00,